sensor_id;sensor_type;location;lat;lon;timestamp;pressure;altitude;pressure_sealevel;temperature;humidity
53270;BME280;39159;45.634;9.420;2023-11-21T00:01:00;98306.53;;;9.36;100.00
53270;BME280;39159;45.634;9.420;2023-11-21T00:03:29;98296.75;;;9.35;100.00
53270;BME280;39159;45.634;9.420;2023-11-21T00:05:54;98298.69;;;9.34;100.00
53270;BME280;39159;45.634;9.420;2023-11-21T00:08:20;98295.66;;;9.36;100.00
53270;BME280;39159;45.634;9.420;2023-11-21T00:10:45;98298.19;;;9.32;100.00
53270;BME280;39159;45.634;9.420;2023-11-21T00:13:11;98304.94;;;9.35;100.00
53270;BME280;39159;45.634;9.420;2023-11-21T00:15:37;98296.25;;;9.33;100.00
53270;BME280;39159;45.634;9.420;2023-11-21T00:18:03;98290.03;;;9.32;100.00
53270;BME280;39159;45.634;9.420;2023-11-21T00:20:28;98291.13;;;9.31;100.00
53270;BME280;39159;45.634;9.420;2023-11-21T00:22:54;98292.75;;;9.32;100.00
53270;BME280;39159;45.634;9.420;2023-11-21T00:25:19;98291.13;;;9.31;100.00
53270;BME280;39159;45.634;9.420;2023-11-21T00:27:45;98290.03;;;9.32;100.00
53270;BME280;39159;45.634;9.420;2023-11-21T00:30:11;98284.09;;;9.30;100.00
53270;BME280;39159;45.634;9.420;2023-11-21T00:32:37;98273.84;;;9.27;100.00
53270;BME280;39159;45.634;9.420;2023-11-21T00:35:03;98282.00;;;9.27;100.00
53270;BME280;39159;45.634;9.420;2023-11-21T00:37:28;98288.72;;;9.21;100.00
53270;BME280;39159;45.634;9.420;2023-11-21T00:39:53;98287.09;;;9.20;100.00
53270;BME280;39159;45.634;9.420;2023-11-21T00:42:19;98295.25;;;9.20;100.00
53270;BME280;39159;45.634;9.420;2023-11-21T00:44:44;98286.00;;;9.21;100.00
53270;BME280;39159;45.634;9.420;2023-11-21T00:47:10;98282.78;;;9.19;100.00
53270;BME280;39159;45.634;9.420;2023-11-21T00:49:36;98278.47;;;9.18;100.00
53270;BME280;39159;45.634;9.420;2023-11-21T00:52:01;98275.41;;;9.20;100.00
53270;BME280;39159;45.634;9.420;2023-11-21T00:54:28;98270.13;;;9.23;100.00
53270;BME280;39159;45.634;9.420;2023-11-21T00:56:53;98268.53;;;9.22;100.00
53270;BME280;39159;45.634;9.420;2023-11-21T00:59:18;98271.44;;;9.26;100.00
53270;BME280;39159;45.634;9.420;2023-11-21T01:01:44;98268.53;;;9.22;100.00
53270;BME280;39159;45.634;9.420;2023-11-21T01:04:09;98276.69;;;9.22;100.00
53270;BME280;39159;45.634;9.420;2023-11-21T01:06:35;98272.53;;;9.25;100.00
53270;BME280;39159;45.634;9.420;2023-11-21T01:09:01;98274.16;;;9.26;100.00
53270;BME280;39159;45.634;9.420;2023-11-21T01:11:26;98284.25;;;9.25;100.00
53270;BME280;39159;45.634;9.420;2023-11-21T01:13:51;98273.00;;;9.27;100.00
53270;BME280;39159;45.634;9.420;2023-11-21T01:16:18;98272.53;;;9.25;100.00
53270;BME280;39159;45.634;9.420;2023-11-21T01:18:43;98274.13;;;9.17;100.00
53270;BME280;39159;45.634;9.420;2023-11-21T01:21:09;98274.41;;;9.16;100.00
53270;BME280;39159;45.634;9.420;2023-11-21T01:23:34;98270.41;;;9.13;100.00
53270;BME280;39159;45.634;9.420;2023-11-21T01:26:00;98264.34;;;9.16;100.00
53270;BME280;39159;45.634;9.420;2023-11-21T01:28:25;98250.75;;;9.16;100.00
53270;BME280;39159;45.634;9.420;2023-11-21T01:30:51;98254.28;;;9.17;100.00
53270;BME280;39159;45.634;9.420;2023-11-21T01:33:18;98248.81;;;9.17;100.00
53270;BME280;39159;45.634;9.420;2023-11-21T01:35:43;98242.59;;;9.16;100.00
53270;BME280;39159;45.634;9.420;2023-11-21T01:38:09;98242.59;;;9.16;100.00
53270;BME280;39159;45.634;9.420;2023-11-21T01:40:35;98233.44;;;9.12;100.00
53270;BME280;39159;45.634;9.420;2023-11-21T01:43:00;98239.97;;;9.11;100.00
53270;BME280;39159;45.634;9.420;2023-11-21T01:45:28;98238.88;;;9.12;100.00
53270;BME280;39159;45.634;9.420;2023-11-21T01:47:56;98228.59;;;9.09;100.00
53270;BME280;39159;45.634;9.420;2023-11-21T01:50:22;98238.38;;;9.10;100.00
53270;BME280;39159;45.634;9.420;2023-11-21T01:52:48;98227.50;;;9.10;100.00
53270;BME280;39159;45.634;9.420;2023-11-21T01:55:16;98232.31;;;9.13;100.00
53270;BME280;39159;45.634;9.420;2023-11-21T01:57:45;98226.25;;;9.16;100.00
53270;BME280;39159;45.634;9.420;2023-11-21T02:00:11;98220.31;;;9.14;100.00
53270;BME280;39159;45.634;9.420;2023-11-21T02:02:47;98213.44;;;9.17;100.00
53270;BME280;39159;45.634;9.420;2023-11-21T02:05:17;98216.31;;;9.20;100.00
53270;BME280;39159;45.634;9.420;2023-11-21T02:07:44;98220.34;;;9.23;100.00
53270;BME280;39159;45.634;9.420;2023-11-21T02:10:10;98218.72;;;9.22;100.00
53270;BME280;39159;45.634;9.420;2023-11-21T02:12:40;98217.75;;;9.18;100.00
53270;BME280;39159;45.634;9.420;2023-11-21T02:15:08;98218.22;;;9.11;100.00
53270;BME280;39159;45.634;9.420;2023-11-21T02:17:41;98215.47;;;9.11;100.00
53270;BME280;39159;45.634;9.420;2023-11-21T02:20:12;98210.69;;;9.08;100.00
53270;BME280;39159;45.634;9.420;2023-11-21T02:22:41;98200.44;;;9.05;100.00
53270;BME280;39159;45.634;9.420;2023-11-21T02:25:10;98204.25;;;9.04;100.00
53270;BME280;39159;45.634;9.420;2023-11-21T02:27:36;98201.72;;;9.07;100.00
53270;BME280;39159;45.634;9.420;2023-11-21T02:30:03;98194.53;;;9.11;100.00
53270;BME280;39159;45.634;9.420;2023-11-21T02:32:29;98196.31;;;9.16;100.00
53270;BME280;39159;45.634;9.420;2023-11-21T02:34:57;98188.94;;;9.17;100.00
53270;BME280;39159;45.634;9.420;2023-11-21T02:37:26;98179.00;;;9.12;100.00
53270;BME280;39159;45.634;9.420;2023-11-21T02:39:51;98182.34;;;9.09;100.00
53270;BME280;39159;45.634;9.420;2023-11-21T02:42:18;98178.31;;;9.06;100.00
53270;BME280;39159;45.634;9.420;2023-11-21T02:44:43;98167.44;;;9.06;100.00
53270;BME280;39159;45.634;9.420;2023-11-21T02:47:09;98168.25;;;9.07;100.00
53270;BME280;39159;45.634;9.420;2023-11-21T02:49:34;98182.97;;;9.06;100.00
53270;BME280;39159;45.634;9.420;2023-11-21T02:52:01;98177.03;;;9.04;100.00
53270;BME280;39159;45.634;9.420;2023-11-21T02:54:27;98175.59;;;9.06;100.00
53270;BME280;39159;45.634;9.420;2023-11-21T02:56:52;98179.78;;;9.04;100.00
53270;BME280;39159;45.634;9.420;2023-11-21T02:59:18;98170.13;;;8.98;100.00
53270;BME280;39159;45.634;9.420;2023-11-21T03:01:45;98175.47;;;9.03;100.00
53270;BME280;39159;45.634;9.420;2023-11-21T03:04:10;98181.38;;;9.05;100.00
53270;BME280;39159;45.634;9.420;2023-11-21T03:06:36;98182.19;;;9.05;100.00
53270;BME280;39159;45.634;9.420;2023-11-21T03:09:01;98184.91;;;9.05;100.00
53270;BME280;39159;45.634;9.420;2023-11-21T03:11:27;98184.25;;;9.08;100.00
53270;BME280;39159;45.634;9.420;2023-11-21T03:13:52;98191.44;;;9.04;100.00
53270;BME280;39159;45.634;9.420;2023-11-21T03:16:18;98186.84;;;9.05;100.00
53270;BME280;39159;45.634;9.420;2023-11-21T03:18:44;98186.19;;;9.08;100.00
53270;BME280;39159;45.634;9.420;2023-11-21T03:21:09;98186.19;;;9.08;100.00
53270;BME280;39159;45.634;9.420;2023-11-21T03:23:35;98187.78;;;9.09;100.00
53270;BME280;39159;45.634;9.420;2023-11-21T03:26:01;98188.59;;;9.09;100.00
53270;BME280;39159;45.634;9.420;2023-11-21T03:28:27;98187.47;;;9.10;100.00
53270;BME280;39159;45.634;9.420;2023-11-21T03:30:53;98185.22;;;9.12;100.00
53270;BME280;39159;45.634;9.420;2023-11-21T03:33:18;98187.31;;;9.16;100.00
53270;BME280;39159;45.634;9.420;2023-11-21T03:35:43;98186.50;;;9.15;100.00
53270;BME280;39159;45.634;9.420;2023-11-21T03:38:10;98178.19;;;9.11;100.00
53270;BME280;39159;45.634;9.420;2023-11-21T03:40:36;98179.59;;;9.09;100.00
53270;BME280;39159;45.634;9.420;2023-11-21T03:43:01;98180.56;;;9.04;100.00
53270;BME280;39159;45.634;9.420;2023-11-21T03:45:27;98176.41;;;9.07;100.00
53270;BME280;39159;45.634;9.420;2023-11-21T03:47:52;98180.75;;;9.08;100.00
53270;BME280;39159;45.634;9.420;2023-11-21T03:50:17;98184.25;;;9.08;100.00
53270;BME280;39159;45.634;9.420;2023-11-21T03:52:43;98188.25;;;9.11;100.00
53270;BME280;39159;45.634;9.420;2023-11-21T03:55:09;98181.72;;;9.12;100.00
53270;BME280;39159;45.634;9.420;2023-11-21T03:57:35;98184.28;;;9.17;100.00
53270;BME280;39159;45.634;9.420;2023-11-21T04:00:01;98180.75;;;9.17;100.00
53270;BME280;39159;45.634;9.420;2023-11-21T04:02:29;98181.06;;;9.15;100.00
53270;BME280;39159;45.634;9.420;2023-11-21T04:04:56;98173.69;;;9.16;100.00
53270;BME280;39159;45.634;9.420;2023-11-21T04:07:22;98175.63;;;9.15;100.00
53270;BME280;39159;45.634;9.420;2023-11-21T04:09:47;98168.59;;;9.14;100.00
53270;BME280;39159;45.634;9.420;2023-11-21T04:12:13;98164.91;;;9.10;100.00
53270;BME280;39159;45.634;9.420;2023-11-21T04:14:38;98170.66;;;9.08;100.00
53270;BME280;39159;45.634;9.420;2023-11-21T04:17:04;98167.94;;;9.08;100.00
53270;BME280;39159;45.634;9.420;2023-11-21T04:19:29;98167.13;;;9.08;100.00
53270;BME280;39159;45.634;9.420;2023-11-21T04:21:54;98166.66;;;9.06;100.00
53270;BME280;39159;45.634;9.420;2023-11-21T04:24:20;98167.78;;;9.05;100.00
53270;BME280;39159;45.634;9.420;2023-11-21T04:26:45;98156.72;;;9.01;100.00
53270;BME280;39159;45.634;9.420;2023-11-21T04:29:11;98163.25;;;9.00;100.00
53270;BME280;39159;45.634;9.420;2023-11-21T04:31:36;98158.94;;;8.99;100.00
53270;BME280;39159;45.634;9.420;2023-11-21T04:34:02;98165.03;;;8.96;100.00
53270;BME280;39159;45.634;9.420;2023-11-21T04:36:29;98161.97;;;8.98;100.00
53270;BME280;39159;45.634;9.420;2023-11-21T04:38:56;98165.19;;;9.00;100.00
53270;BME280;39159;45.634;9.420;2023-11-21T04:41:21;98164.09;;;9.01;100.00
53270;BME280;39159;45.634;9.420;2023-11-21T04:43:46;98156.41;;;9.03;100.00
53270;BME280;39159;45.634;9.420;2023-11-21T04:46:12;98154.16;;;9.05;100.00
53270;BME280;39159;45.634;9.420;2023-11-21T04:48:38;98152.72;;;9.07;100.00
53270;BME280;39159;45.634;9.420;2023-11-21T04:51:03;98154.81;;;9.10;100.00
53270;BME280;39159;45.634;9.420;2023-11-21T04:53:29;98159.75;;;9.08;100.00
53270;BME280;39159;45.634;9.420;2023-11-21T04:55:55;98155.13;;;9.09;100.00
53270;BME280;39159;45.634;9.420;2023-11-21T04:58:20;98165.38;;;9.03;100.00
53270;BME280;39159;45.634;9.420;2023-11-21T05:00:46;98160.53;;;8.91;100.00
53270;BME280;39159;45.634;9.420;2023-11-21T05:03:11;98164.84;;;8.92;100.00
53270;BME280;39159;45.634;9.420;2023-11-21T05:05:37;98162.78;;;8.89;100.00
53270;BME280;39159;45.634;9.420;2023-11-21T05:08:02;98172.69;;;8.85;100.00
53270;BME280;39159;45.634;9.420;2023-11-21T05:10:28;98172.97;;;8.75;100.00
53270;BME280;39159;45.634;9.420;2023-11-21T05:12:54;98171.38;;;8.74;100.00
53270;BME280;39159;45.634;9.420;2023-11-21T05:15:20;98171.97;;;8.71;100.00
53270;BME280;39159;45.634;9.420;2023-11-21T05:17:46;98184.47;;;8.72;100.00
53270;BME280;39159;45.634;9.420;2023-11-21T05:20:15;98171.97;;;8.71;100.00
53270;BME280;39159;45.634;9.420;2023-11-21T05:22:43;98176.34;;;8.81;100.00
53270;BME280;39159;45.634;9.420;2023-11-21T05:25:08;98177.34;;;8.85;100.00
53270;BME280;39159;45.634;9.420;2023-11-21T05:27:35;98175.09;;;8.96;100.00
53270;BME280;39159;45.634;9.420;2023-11-21T05:30:02;98169.16;;;8.93;100.00
53270;BME280;39159;45.634;9.420;2023-11-21T05:32:30;98170.13;;;8.98;100.00
53270;BME280;39159;45.634;9.420;2023-11-21T05:34:56;98170.31;;;9.01;100.00
53270;BME280;39159;45.634;9.420;2023-11-21T05:37:21;98169.50;;;8.92;100.00
53270;BME280;39159;45.634;9.420;2023-11-21T05:39:48;98165.63;;;8.84;100.00
53270;BME280;39159;45.634;9.420;2023-11-21T05:42:14;98160.50;;;8.74;100.00
53270;BME280;39159;45.634;9.420;2023-11-21T05:44:41;98160.13;;;8.67;100.00
53270;BME280;39159;45.634;9.420;2023-11-21T05:47:08;98157.06;;;8.60;100.00
53270;BME280;39159;45.634;9.420;2023-11-21T05:49:33;98161.88;;;8.63;100.00
53270;BME280;39159;45.634;9.420;2023-11-21T05:51:59;98162.84;;;8.58;100.00
53270;BME280;39159;45.634;9.420;2023-11-21T05:54:25;98171.16;;;8.62;100.00
53270;BME280;39159;45.634;9.420;2023-11-21T05:56:51;98169.59;;;8.69;100.00
53270;BME280;39159;45.634;9.420;2023-11-21T05:59:16;98165.56;;;8.67;100.00
53270;BME280;39159;45.634;9.420;2023-11-21T06:01:42;98170.88;;;8.72;100.00
53270;BME280;39159;45.634;9.420;2023-11-21T06:04:07;98167.53;;;8.75;100.00
53270;BME280;39159;45.634;9.420;2023-11-21T06:06:36;98174.25;;;8.78;100.00
53270;BME280;39159;45.634;9.420;2023-11-21T06:09:01;98175.38;;;8.77;100.00
53270;BME280;39159;45.634;9.420;2023-11-21T06:11:27;98166.22;;;8.73;100.00
53270;BME280;39159;45.634;9.420;2023-11-21T06:13:53;98161.94;;;8.71;100.00
53270;BME280;39159;45.634;9.420;2023-11-21T06:16:19;98156.13;;;8.64;100.00
53270;BME280;39159;45.634;9.420;2023-11-21T06:18:45;98160.56;;;8.60;100.00
53270;BME280;39159;45.634;9.420;2023-11-21T06:21:11;98168.59;;;8.57;100.00
53270;BME280;39159;45.634;9.420;2023-11-21T06:23:36;98160.56;;;8.60;100.00
53270;BME280;39159;45.634;9.420;2023-11-21T06:26:02;98157.72;;;8.65;100.00
53270;BME280;39159;45.634;9.420;2023-11-21T06:28:27;98171.00;;;8.58;100.00
53270;BME280;39159;45.634;9.420;2023-11-21T06:30:53;98157.50;;;8.53;100.00
53270;BME280;39159;45.634;9.420;2023-11-21T06:33:18;98156.03;;;8.47;100.00
53270;BME280;39159;45.634;9.420;2023-11-21T06:35:44;98154.25;;;8.42;100.00
53270;BME280;39159;45.634;9.420;2023-11-21T06:38:10;98156.00;;;8.38;100.00
53270;BME280;39159;45.634;9.420;2023-11-21T06:40:35;98157.09;;;8.37;100.00
53270;BME280;39159;45.634;9.420;2023-11-21T06:43:00;98161.69;;;8.28;100.00
53270;BME280;39159;45.634;9.420;2023-11-21T06:45:26;98158.94;;;8.19;100.00
53270;BME280;39159;45.634;9.420;2023-11-21T06:47:51;98165.00;;;8.16;100.00
53270;BME280;39159;45.634;9.420;2023-11-21T06:50:17;98166.09;;;8.15;100.00
53270;BME280;39159;45.634;9.420;2023-11-21T06:52:42;98164.50;;;8.14;100.00
53270;BME280;39159;45.634;9.420;2023-11-21T06:55:08;98167.22;;;8.14;100.00
53270;BME280;39159;45.634;9.420;2023-11-21T06:57:35;98161.47;;;8.16;100.00
53270;BME280;39159;45.634;9.420;2023-11-21T07:00:00;98163.66;;;8.05;100.00
53270;BME280;39159;45.634;9.420;2023-11-21T07:02:26;98164.69;;;7.95;100.00
53270;BME280;39159;45.634;9.420;2023-11-21T07:04:52;98165.31;;;7.92;100.00
53270;BME280;39159;45.634;9.420;2023-11-21T07:07:18;98158.28;;;7.91;100.00
53270;BME280;39159;45.634;9.420;2023-11-21T07:09:44;98152.97;;;7.86;100.00
53270;BME280;39159;45.634;9.420;2023-11-21T07:12:10;98152.34;;;7.89;100.00
53270;BME280;39159;45.634;9.420;2023-11-21T07:14:36;98157.19;;;7.92;100.00
53270;BME280;39159;45.634;9.420;2023-11-21T07:17:02;98147.53;;;7.86;100.00
53270;BME280;39159;45.634;9.420;2023-11-21T07:19:28;98152.66;;;7.87;100.00
53270;BME280;39159;45.634;9.420;2023-11-21T07:21:54;98158.28;;;7.91;100.00
53270;BME280;39159;45.634;9.420;2023-11-21T07:24:20;98150.63;;;7.93;100.00
53270;BME280;39159;45.634;9.420;2023-11-21T07:26:46;98162.47;;;7.97;100.00
53270;BME280;39159;45.634;9.420;2023-11-21T07:29:11;98161.38;;;7.98;100.00
53270;BME280;39159;45.634;9.420;2023-11-21T07:31:37;98160.44;;;8.03;100.00
53270;BME280;39159;45.634;9.420;2023-11-21T07:34:03;98147.81;;;8.07;100.00
53270;BME280;39159;45.634;9.420;2023-11-21T07:36:28;98153.00;;;8.17;100.00
53270;BME280;39159;45.634;9.420;2023-11-21T07:38:54;98138.97;;;8.24;100.00
53270;BME280;39159;45.634;9.420;2023-11-21T07:41:19;98146.38;;;8.32;100.00
53270;BME280;39159;45.634;9.420;2023-11-21T07:43:46;98147.66;;;8.35;100.00
53270;BME280;39159;45.634;9.420;2023-11-21T07:46:12;98148.09;;;8.28;100.00
53270;BME280;39159;45.634;9.420;2023-11-21T07:48:38;98146.63;;;8.22;100.00
53270;BME280;39159;45.634;9.420;2023-11-21T07:51:04;98148.56;;;8.21;100.00
53270;BME280;39159;45.634;9.420;2023-11-21T07:53:30;98147.91;;;8.24;100.00
53270;BME280;39159;45.634;9.420;2023-11-21T07:55:58;98152.69;;;8.19;100.00
53270;BME280;39159;45.634;9.420;2023-11-21T07:58:24;98150.31;;;8.26;100.00
53270;BME280;39159;45.634;9.420;2023-11-21T08:00:49;98149.03;;;8.23;100.00
53270;BME280;39159;45.634;9.420;2023-11-21T08:03:15;98146.19;;;8.28;100.00
53270;BME280;39159;45.634;9.420;2023-11-21T08:05:41;98152.59;;;8.33;100.00
53270;BME280;39159;45.634;9.420;2023-11-21T08:08:06;98159.31;;;8.35;100.00
53270;BME280;39159;45.634;9.420;2023-11-21T08:10:32;98143.66;;;8.32;100.00
53270;BME280;39159;45.634;9.420;2023-11-21T08:12:58;98150.06;;;8.36;100.00
53270;BME280;39159;45.634;9.420;2023-11-21T08:15:23;98148.53;;;8.44;100.00
53270;BME280;39159;45.634;9.420;2023-11-21T08:17:49;98152.41;;;8.52;100.00
53270;BME280;39159;45.634;9.420;2023-11-21T08:20:14;98147.31;;;8.59;100.00
53270;BME280;39159;45.634;9.420;2023-11-21T08:22:44;98149.25;;;8.67;100.00
53270;BME280;39159;45.634;9.420;2023-11-21T08:25:10;98146.25;;;8.77;100.00
53270;BME280;39159;45.634;9.420;2023-11-21T08:27:35;98141.47;;;8.83;100.00
53270;BME280;39159;45.634;9.420;2023-11-21T08:30:02;98142.44;;;8.96;100.00
53270;BME280;39159;45.634;9.420;2023-11-21T08:32:28;98144.72;;;9.11;100.00
53270;BME280;39159;45.634;9.420;2023-11-21T08:34:55;98138.03;;;9.43;100.00
53270;BME280;39159;45.634;9.420;2023-11-21T08:37:21;98134.97;;;9.80;100.00
53270;BME280;39159;45.634;9.420;2023-11-21T08:39:47;98130.50;;;10.40;100.00
53270;BME280;39159;45.634;9.420;2023-11-21T08:42:13;98130.44;;;10.87;100.00
53270;BME280;39159;45.634;9.420;2023-11-21T08:44:39;98130.28;;;11.13;100.00
53270;BME280;39159;45.634;9.420;2023-11-21T08:47:05;98125.44;;;11.18;100.00
53270;BME280;39159;45.634;9.420;2023-11-21T08:49:30;98129.09;;;11.02;100.00
53270;BME280;39159;45.634;9.420;2023-11-21T08:51:56;98118.56;;;11.12;100.00
53270;BME280;39159;45.634;9.420;2023-11-21T08:54:24;98119.03;;;11.14;100.00
53270;BME280;39159;45.634;9.420;2023-11-21T08:56:51;98111.63;;;11.57;100.00
53270;BME280;39159;45.634;9.420;2023-11-21T08:59:16;98098.25;;;11.97;100.00
53270;BME280;39159;45.634;9.420;2023-11-21T09:01:41;98094.09;;;12.24;100.00
53270;BME280;39159;45.634;9.420;2023-11-21T09:04:07;98091.72;;;12.60;100.00
53270;BME280;39159;45.634;9.420;2023-11-21T09:06:32;98094.91;;;12.99;100.00
53270;BME280;39159;45.634;9.420;2023-11-21T09:08:58;98095.66;;;13.36;100.00
53270;BME280;39159;45.634;9.420;2023-11-21T09:11:23;98104.78;;;13.68;100.00
53270;BME280;39159;45.634;9.420;2023-11-21T09:13:50;98107.31;;;13.89;100.00
53270;BME280;39159;45.634;9.420;2023-11-21T09:16:17;98102.94;;;13.20;100.00
53270;BME280;39159;45.634;9.420;2023-11-21T09:18:42;98096.00;;;13.35;100.00
53270;BME280;39159;45.634;9.420;2023-11-21T09:21:08;98083.28;;;13.42;100.00
53270;BME280;39159;45.634;9.420;2023-11-21T09:23:35;98084.53;;;13.73;100.00
53270;BME280;39159;45.634;9.420;2023-11-21T09:26:01;98080.66;;;13.74;100.00
53270;BME280;39159;45.634;9.420;2023-11-21T09:28:27;98086.47;;;13.73;98.83
53270;BME280;39159;45.634;9.420;2023-11-21T09:30:55;98084.09;;;13.43;99.45
53270;BME280;39159;45.634;9.420;2023-11-21T09:33:20;98077.91;;;13.74;99.61
53270;BME280;39159;45.634;9.420;2023-11-21T09:35:47;98072.03;;;14.04;100.00
53270;BME280;39159;45.634;9.420;2023-11-21T09:38:13;98087.59;;;14.16;95.93
53270;BME280;39159;45.634;9.420;2023-11-21T09:40:40;98094.00;;;14.36;95.84
53270;BME280;39159;45.634;9.420;2023-11-21T09:43:15;98094.72;;;14.80;92.40
53270;BME280;39159;45.634;9.420;2023-11-21T09:45:45;98089.72;;;15.02;88.31
53270;BME280;39159;45.634;9.420;2023-11-21T09:48:11;98086.63;;;15.03;88.21
53270;BME280;39159;45.634;9.420;2023-11-21T09:50:37;98084.69;;;15.23;86.01
53270;BME280;39159;45.634;9.420;2023-11-21T09:53:19;98075.38;;;15.47;87.10
53270;BME280;39159;45.634;9.420;2023-11-21T09:55:51;98071.03;;;15.66;81.90
53270;BME280;39159;45.634;9.420;2023-11-21T09:58:17;98059.16;;;15.62;81.31
53270;BME280;39159;45.634;9.420;2023-11-21T10:00:45;98060.38;;;15.84;78.55
53270;BME280;39159;45.634;9.420;2023-11-21T10:03:11;98055.81;;;15.91;78.46
53270;BME280;39159;45.634;9.420;2023-11-21T10:05:37;98063.34;;;15.94;77.38
53270;BME280;39159;45.634;9.420;2023-11-21T10:08:12;98061.34;;;15.72;76.89
53270;BME280;39159;45.634;9.420;2023-11-21T10:10:43;98059.22;;;15.46;75.94
53270;BME280;39159;45.634;9.420;2023-11-21T10:13:10;98050.75;;;15.35;80.38
53270;BME280;39159;45.634;9.420;2023-11-21T10:15:37;98066.09;;;15.17;79.98
53270;BME280;39159;45.634;9.420;2023-11-21T10:18:04;98054.81;;;15.22;78.79
53270;BME280;39159;45.634;9.420;2023-11-21T10:20:31;98053.59;;;15.39;78.61
53270;BME280;39159;45.634;9.420;2023-11-21T10:22:59;98049.38;;;15.64;78.39
53270;BME280;39159;45.634;9.420;2023-11-21T10:25:27;98039.47;;;15.60;79.17
53270;BME280;39159;45.634;9.420;2023-11-21T10:27:58;98039.69;;;15.31;78.17
53270;BME280;39159;45.634;9.420;2023-11-21T10:30:30;98022.84;;;15.33;80.40
53270;BME280;39159;45.634;9.420;2023-11-21T10:33:00;98030.34;;;15.75;79.24
53270;BME280;39159;45.634;9.420;2023-11-21T10:38:06;98023.03;;;16.06;75.84
53270;BME280;39159;45.634;9.420;2023-11-21T10:40:37;98025.56;;;16.14;73.27
53270;BME280;39159;45.634;9.420;2023-11-21T10:43:08;98023.16;;;16.13;71.46
53270;BME280;39159;45.634;9.420;2023-11-21T10:45:38;98023.09;;;16.32;73.50
53270;BME280;39159;45.634;9.420;2023-11-21T10:48:10;98025.44;;;16.57;72.16
53270;BME280;39159;45.634;9.420;2023-11-21T10:50:37;98027.09;;;16.12;71.10
53270;BME280;39159;45.634;9.420;2023-11-21T10:53:06;98022.81;;;16.14;72.91
53270;BME280;39159;45.634;9.420;2023-11-21T10:55:32;98029.47;;;15.90;72.58
53270;BME280;39159;45.634;9.420;2023-11-21T10:58:00;98020.78;;;16.34;72.50
53270;BME280;39159;45.634;9.420;2023-11-21T11:00:28;98016.91;;;16.39;70.85
53270;BME280;39159;45.634;9.420;2023-11-21T11:02:54;98011.16;;;16.48;69.18
53270;BME280;39159;45.634;9.420;2023-11-21T11:05:25;98013.38;;;16.92;67.73
53270;BME280;39159;45.634;9.420;2023-11-21T11:08:12;98013.31;;;17.18;67.01
53270;BME280;39159;45.634;9.420;2023-11-21T11:10:37;98013.94;;;17.35;66.24
53270;BME280;39159;45.634;9.420;2023-11-21T11:13:04;98012.72;;;17.32;63.63
53270;BME280;39159;45.634;9.420;2023-11-21T11:15:31;98013.56;;;17.36;63.37
53270;BME280;39159;45.634;9.420;2023-11-21T11:17:57;98018.88;;;17.22;62.40
53270;BME280;39159;45.634;9.420;2023-11-21T11:20:24;98018.50;;;17.24;63.76
53270;BME280;39159;45.634;9.420;2023-11-21T11:22:56;98007.34;;;17.47;61.94
53270;BME280;39159;45.634;9.420;2023-11-21T11:28:22;98001.84;;;17.47;61.29
53270;BME280;39159;45.634;9.420;2023-11-21T11:33:57;97993.25;;;17.55;59.86
53270;BME280;39159;45.634;9.420;2023-11-21T11:38:59;97996.84;;;17.59;58.51
53270;BME280;39159;45.634;9.420;2023-11-21T11:41:29;97991.28;;;17.52;58.39
53270;BME280;39159;45.634;9.420;2023-11-21T11:43:56;97982.34;;;17.66;59.28
53270;BME280;39159;45.634;9.420;2023-11-21T11:46:40;97973.75;;;17.37;58.68
53270;BME280;39159;45.634;9.420;2023-11-21T11:49:06;97984.56;;;17.53;59.69
53270;BME280;39159;45.634;9.420;2023-11-21T11:51:33;97992.63;;;17.69;59.80
53270;BME280;39159;45.634;9.420;2023-11-21T11:54:01;97984.09;;;17.81;59.98
53270;BME280;39159;45.634;9.420;2023-11-21T11:56:34;97985.09;;;17.66;59.55
53270;BME280;39159;45.634;9.420;2023-11-21T11:59:04;97974.19;;;17.80;58.57
53270;BME280;39159;45.634;9.420;2023-11-21T12:01:32;97981.47;;;17.58;58.98
53270;BME280;39159;45.634;9.420;2023-11-21T12:07:00;97989.97;;;17.43;60.73
53270;BME280;39159;45.634;9.420;2023-11-21T12:09:28;97986.78;;;17.40;60.82
53270;BME280;39159;45.634;9.420;2023-11-21T12:11:55;97987.31;;;17.50;59.72
53270;BME280;39159;45.634;9.420;2023-11-21T12:14:24;97982.00;;;17.71;59.53
53270;BME280;39159;45.634;9.420;2023-11-21T12:16:49;97972.34;;;17.88;57.71
53270;BME280;39159;45.634;9.420;2023-11-21T12:19:15;97979.13;;;17.60;58.17
53270;BME280;39159;45.634;9.420;2023-11-21T12:21:40;97975.88;;;17.51;58.22
53270;BME280;39159;45.634;9.420;2023-11-21T12:24:06;97966.41;;;17.49;58.58
53270;BME280;39159;45.634;9.420;2023-11-21T12:26:37;97973.41;;;17.39;58.60
53270;BME280;39159;45.634;9.420;2023-11-21T12:29:02;97972.09;;;17.29;61.45
53270;BME280;39159;45.634;9.420;2023-11-21T12:31:30;97974.09;;;17.32;59.11
53270;BME280;39159;45.634;9.420;2023-11-21T12:33:55;97976.72;;;17.55;59.23
53270;BME280;39159;45.634;9.420;2023-11-21T12:36:21;97977.28;;;17.34;59.39
53270;BME280;39159;45.634;9.420;2023-11-21T12:38:47;97979.75;;;17.43;57.85
53270;BME280;39159;45.634;9.420;2023-11-21T12:41:12;97971.56;;;17.54;58.84
53270;BME280;39159;45.634;9.420;2023-11-21T12:43:38;97975.06;;;17.13;58.25
53270;BME280;39159;45.634;9.420;2023-11-21T12:46:08;97977.84;;;16.83;60.11
53270;BME280;39159;45.634;9.420;2023-11-21T12:48:38;97978.81;;;16.71;61.49
53270;BME280;39159;45.634;9.420;2023-11-21T12:51:09;97974.03;;;16.95;61.71
53270;BME280;39159;45.634;9.420;2023-11-21T12:53:37;97975.59;;;17.26;61.37
53270;BME280;39159;45.634;9.420;2023-11-21T12:56:07;97977.19;;;17.27;60.91
53270;BME280;39159;45.634;9.420;2023-11-21T12:58:35;97983.66;;;17.42;61.16
53270;BME280;39159;45.634;9.420;2023-11-21T13:01:01;97975.94;;;17.55;60.55
53270;BME280;39159;45.634;9.420;2023-11-21T13:03:29;97975.56;;;17.60;59.87
53270;BME280;39159;45.634;9.420;2023-11-21T13:05:55;97978.81;;;17.66;59.51
53270;BME280;39159;45.634;9.420;2023-11-21T13:08:23;97975.03;;;17.47;59.21
53270;BME280;39159;45.634;9.420;2023-11-21T13:10:52;97981.41;;;17.51;59.40